Conroe's Hourly Summary for Sunday, March 19, 2017
Hour Temp
(f)
RH
(%)
Solar Rad.
(MJ/m2)
Rainfall
(in)
Wind
(mph)
3/19/2017 12:00 AM 70 73 0 0 0.43
3/19/2017 1:00 AM 68 79 0 0 0.39
3/19/2017 2:00 AM 67 85 0 0 0.2
3/19/2017 3:00 AM 66 88 0 0 0.04
3/19/2017 4:00 AM 66 99 0 0 0.35
3/19/2017 5:00 AM 66 92 0 0 0.45
3/19/2017 6:00 AM 66 91 0 0 0.26
3/19/2017 7:00 AM 66 90 0.03 0 1.02
3/19/2017 8:00 AM 67 86 0.29 0 1.48
3/19/2017 9:00 AM 69 79 0.61 0 2.17
3/19/2017 10:00 AM 72 65 1.33 0 2.31
3/19/2017 11:00 AM 76 52 2.13 0 2.39
3/19/2017 12:00 PM 79 45 2.67 0 2.51
3/19/2017 1:00 PM 81 45 2.7 0 2.58
3/19/2017 2:00 PM 82 41 2.79 0 2.96
3/19/2017 3:00 PM 83 39 2.59 0 3.23
3/19/2017 4:00 PM 84 37 2.22 0 2.87
3/19/2017 5:00 PM 84 36 1.49 0 2.55
3/19/2017 6:00 PM 82 38 0.57 0 1.5
3/19/2017 7:00 PM 76 50 0.03 0 2.87
3/19/2017 8:00 PM 73 68 0 0 3.3
3/19/2017 9:00 PM 71 75 0 0 2.89
3/19/2017 10:00 PM 69 80 0 0 1.87
3/19/2017 11:00 PM 68 84 0 0 1.14
Data Summary 72 67 19.45 0.00 1.74